createdAt,value
2018-02-08T00:02:05.702Z,22.62
2018-02-08T00:04:33.654Z,26.50
2018-02-08T00:07:01.623Z,25.60
2018-02-08T00:09:29.594Z,24.12
2018-02-08T00:11:57.586Z,24.10
2018-02-08T00:14:25.538Z,23.90
2018-02-08T00:16:53.510Z,23.60
2018-02-08T00:19:21.502Z,22.48
2018-02-08T00:21:49.455Z,25.58
2018-02-08T00:24:17.416Z,23.52
2018-02-08T00:26:45.398Z,25.25
2018-02-08T00:29:13.343Z,23.48
2018-02-08T00:31:41.324Z,23.83
2018-02-08T00:34:09.279Z,23.87
2018-02-08T00:36:37.243Z,25.23
2018-02-08T00:39:05.217Z,21.20
2018-02-08T00:41:33.185Z,23.52
2018-02-08T00:44:01.119Z,24.83
2018-02-08T00:46:29.096Z,23.98
2018-02-08T00:48:57.051Z,25.30
2018-02-08T00:51:25.028Z,25.73
2018-02-08T00:53:54.078Z,22.95
2018-02-08T00:56:22.022Z,23.85
2018-02-08T00:58:50.027Z,25.00
2018-02-08T01:01:18.039Z,26.73
2018-02-08T01:03:45.998Z,22.45
2018-02-08T01:06:13.963Z,26.48
2018-02-08T01:08:41.915Z,25.25
2018-02-08T01:11:09.869Z,24.83
2018-02-08T01:13:38.883Z,22.48
2018-02-08T01:16:06.835Z,24.08
2018-02-08T01:18:34.863Z,23.38
2018-02-08T01:21:03.850Z,24.42
2018-02-08T01:23:31.847Z,21.15
2018-02-08T01:25:59.907Z,24.70
2018-02-08T01:28:27.861Z,25.23
2018-02-08T01:30:55.830Z,22.23
2018-02-08T01:33:23.778Z,22.67
2018-02-08T01:35:51.726Z,23.95
2018-02-08T01:38:19.704Z,25.30
2018-02-08T01:40:47.655Z,25.92
2018-02-08T01:43:15.609Z,23.30
2018-02-08T01:45:43.581Z,24.30
2018-02-08T01:48:11.530Z,23.05
2018-02-08T01:50:39.475Z,25.48
2018-02-08T01:53:07.426Z,26.20
2018-02-08T01:55:35.455Z,22.37
2018-02-08T01:58:03.431Z,24.98
2018-02-08T02:00:31.407Z,25.70
2018-02-08T02:02:59.366Z,21.87
2018-02-08T02:05:28.422Z,25.52
2018-02-08T02:07:56.429Z,23.70
2018-02-08T02:10:24.482Z,25.42
2018-02-08T02:12:52.505Z,24.15
2018-02-08T02:15:20.450Z,25.35
2018-02-08T02:17:48.414Z,24.15
2018-02-08T02:20:16.410Z,23.17
2018-02-08T02:22:44.387Z,26.00
2018-02-08T02:25:12.392Z,24.37
2018-02-08T02:27:40.366Z,24.15
2018-02-08T02:30:08.323Z,23.52
2018-02-08T02:32:36.263Z,24.75
2018-02-08T02:35:04.391Z,26.80
2018-02-08T02:37:32.431Z,23.87
2018-02-08T02:40:00.407Z,25.02
2018-02-08T02:42:28.372Z,23.62
2018-02-08T02:44:56.327Z,22.90
2018-02-08T02:47:24.330Z,23.17
2018-02-08T02:49:52.302Z,24.60
2018-02-08T02:52:20.321Z,24.35
2018-02-08T02:54:48.280Z,24.58
2018-02-08T02:57:16.237Z,24.05
2018-02-08T02:59:44.223Z,27.17
2018-02-08T03:02:12.213Z,25.92
2018-02-08T03:04:40.228Z,24.85
2018-02-08T03:07:08.187Z,20.80
2018-02-08T03:09:36.211Z,26.85
2018-02-08T03:12:04.151Z,24.33
2018-02-08T03:14:32.125Z,23.05
2018-02-08T03:17:00.122Z,22.30
2018-02-08T03:19:28.054Z,24.17
2018-02-08T03:21:55.997Z,23.12
2018-02-08T03:24:23.953Z,24.05
2018-02-08T03:26:51.935Z,24.67
2018-02-08T03:29:19.923Z,25.98
2018-02-08T03:31:47.868Z,24.85
2018-02-08T03:34:15.814Z,22.77
2018-02-08T03:36:43.782Z,23.58
2018-02-08T03:39:11.978Z,21.77
2018-02-08T03:41:39.917Z,22.50
2018-02-08T03:44:07.900Z,22.13
2018-02-08T03:46:35.863Z,24.23
2018-02-08T03:49:03.855Z,22.85
2018-02-08T03:51:31.794Z,25.58
2018-02-08T03:53:59.785Z,26.10
2018-02-08T03:56:27.769Z,25.92
2018-02-08T03:58:55.766Z,25.60
2018-02-08T04:01:24.790Z,25.58
2018-02-08T04:03:52.737Z,24.67
2018-02-08T04:06:20.713Z,24.20
2018-02-08T04:08:48.655Z,25.25
2018-02-08T04:11:16.630Z,25.33
2018-02-08T04:13:44.595Z,24.67
2018-02-08T04:16:12.563Z,23.20
2018-02-08T04:18:40.562Z,23.55
2018-02-08T04:21:08.534Z,22.55
2018-02-08T04:23:36.482Z,27.20
2018-02-08T04:26:04.438Z,24.42
2018-02-08T04:28:32.422Z,26.95
2018-02-08T04:31:00.378Z,25.73
2018-02-08T04:33:28.340Z,26.60
2018-02-08T04:35:56.311Z,25.45
2018-02-08T04:38:30.355Z,22.08
2018-02-08T04:41:04.505Z,24.77
2018-02-08T04:43:38.605Z,24.83
2018-02-08T04:46:12.739Z,27.73
2018-02-08T04:48:40.711Z,23.40
2018-02-08T04:51:08.678Z,25.52
2018-02-08T04:53:36.672Z,25.05
2018-02-08T04:56:04.655Z,24.02
2018-02-08T04:58:33.482Z,27.40
2018-02-08T05:01:01.443Z,28.30
2018-02-08T05:03:29.427Z,24.52
2018-02-08T05:05:57.410Z,25.45
2018-02-08T05:08:25.366Z,28.60
2018-02-08T05:10:53.335Z,26.87
2018-02-08T05:13:21.290Z,28.40
2018-02-08T05:15:49.235Z,26.35
2018-02-08T05:18:17.190Z,24.30
2018-02-08T05:20:45.118Z,26.20
2018-02-08T05:23:13.102Z,25.35
2018-02-08T05:25:41.067Z,24.15
2018-02-08T05:28:08.994Z,26.20
2018-02-08T05:30:37.031Z,27.02
2018-02-08T05:33:04.984Z,25.20
2018-02-08T05:35:32.969Z,24.63
2018-02-08T05:38:01.011Z,26.08
2018-02-08T05:40:29.043Z,25.50
2018-02-08T05:42:57.034Z,25.70
2018-02-08T05:45:24.998Z,25.20
2018-02-08T05:47:54.011Z,24.95
2018-02-08T05:50:21.968Z,27.25
2018-02-08T05:52:50.042Z,24.52
2018-02-08T05:55:18.041Z,26.85
2018-02-08T05:57:45.990Z,27.40
2018-02-08T06:00:14.000Z,27.92
2018-02-08T06:02:41.938Z,24.95
2018-02-08T06:05:09.898Z,26.80
2018-02-08T06:07:37.943Z,24.90
2018-02-08T06:10:05.891Z,24.15
2018-02-08T06:12:33.864Z,25.55
2018-02-08T06:15:01.831Z,27.27
2018-02-08T06:17:29.783Z,29.65
2018-02-08T06:19:57.726Z,27.25
2018-02-08T06:22:25.703Z,29.17
2018-02-08T06:24:53.682Z,29.87
2018-02-08T06:27:21.650Z,30.88
2018-02-08T06:29:49.626Z,29.58
2018-02-08T06:32:17.587Z,29.85
2018-02-08T06:34:45.563Z,31.25
2018-02-08T06:37:13.523Z,28.92
2018-02-08T06:39:41.463Z,28.00
2018-02-08T06:42:09.415Z,32.35
2018-02-08T06:44:37.393Z,29.85
2018-02-08T06:47:05.334Z,30.88
2018-02-08T06:49:33.305Z,29.17
2018-02-08T06:52:01.271Z,30.35
2018-02-08T06:54:29.250Z,31.00
2018-02-08T06:56:57.271Z,32.38
2018-02-08T06:59:25.239Z,31.98
2018-02-08T07:01:53.188Z,31.08
2018-02-08T07:04:21.141Z,30.02
2018-02-08T07:06:49.123Z,30.50
2018-02-08T07:09:17.107Z,27.48
2018-02-08T07:11:45.054Z,30.58
2018-02-08T07:14:13.035Z,31.77
2018-02-08T07:16:40.986Z,29.08
2018-02-08T07:19:08.924Z,32.30
2018-02-08T07:21:37.180Z,31.85
2018-02-08T07:24:05.168Z,27.40
2018-02-08T07:26:33.130Z,32.45
2018-02-08T07:29:01.164Z,31.23
2018-02-08T07:31:29.143Z,34.20
2018-02-08T07:33:57.100Z,31.25
2018-02-08T07:36:25.071Z,35.28
2018-02-08T07:38:53.055Z,32.60
2018-02-08T07:41:20.994Z,31.33
2018-02-08T07:43:49.014Z,31.10
2018-02-08T07:46:17.007Z,31.48
2018-02-08T07:48:44.996Z,28.85
2018-02-08T07:51:12.984Z,30.73
2018-02-08T07:53:40.963Z,33.15
2018-02-08T07:56:08.907Z,31.48
2018-02-08T07:58:36.886Z,32.47
2018-02-08T08:01:05.902Z,29.27
2018-02-08T08:03:33.906Z,34.00
2018-02-08T08:06:01.878Z,31.05
2018-02-08T08:08:29.835Z,30.60
2018-02-08T08:10:57.830Z,31.62
2018-02-08T08:13:25.815Z,33.10
2018-02-08T08:15:53.806Z,31.70
2018-02-08T08:18:21.769Z,33.45
2018-02-08T08:20:49.783Z,35.67
2018-02-08T08:23:17.750Z,30.83
2018-02-08T08:25:45.682Z,31.40
2018-02-08T08:28:13.685Z,29.27
2018-02-08T08:30:41.661Z,28.35
2018-02-08T08:33:10.671Z,29.48
2018-02-08T08:35:38.682Z,30.70
2018-02-08T08:38:06.631Z,29.05
2018-02-08T08:40:34.613Z,32.28
2018-02-08T08:43:02.640Z,31.25
2018-02-08T08:45:30.662Z,31.60
2018-02-08T08:47:58.746Z,31.65
2018-02-08T08:50:26.734Z,29.67
2018-02-08T08:52:54.767Z,33.50
2018-02-08T08:55:22.711Z,32.33
2018-02-08T08:57:50.679Z,33.15
2018-02-08T09:00:18.673Z,29.60
2018-02-08T09:02:46.626Z,31.73
2018-02-08T09:05:14.588Z,31.98
2018-02-08T09:07:42.555Z,30.80
2018-02-08T09:10:10.518Z,32.63
2018-02-08T09:12:38.459Z,29.90
2018-02-08T09:15:06.437Z,29.95
2018-02-08T09:17:34.403Z,31.27
2018-02-08T09:20:02.402Z,33.50
2018-02-08T09:22:30.366Z,29.60
2018-02-08T09:24:58.402Z,30.60
2018-02-08T09:27:26.346Z,31.05
2018-02-08T09:29:54.318Z,29.33
2018-02-08T09:32:22.329Z,30.85
2018-02-08T09:34:50.234Z,31.83
2018-02-08T09:37:19.186Z,34.08
2018-02-08T09:39:47.218Z,31.27
2018-02-08T09:42:15.166Z,33.17
2018-02-08T09:44:43.169Z,31.95
2018-02-08T09:47:11.158Z,30.50
2018-02-08T09:49:39.124Z,32.90
2018-02-08T09:52:07.085Z,30.35
2018-02-08T09:54:35.072Z,30.95
2018-02-08T09:57:03.049Z,32.72
2018-02-08T09:59:31.014Z,31.20
2018-02-08T10:01:58.990Z,29.23
2018-02-08T10:04:27.017Z,28.92
2018-02-08T10:06:55.509Z,30.08
2018-02-08T10:09:24.562Z,30.48
2018-02-08T10:11:52.495Z,30.52
2018-02-08T10:14:20.476Z,30.88
2018-02-08T10:16:48.446Z,29.05
2018-02-08T10:19:16.398Z,31.50
2018-02-08T10:21:45.450Z,34.63
2018-02-08T10:24:14.457Z,30.50
2018-02-08T10:26:42.396Z,31.73
2018-02-08T10:29:11.410Z,27.52
2018-02-08T10:31:39.366Z,31.30
2018-02-08T10:34:07.358Z,31.30
2018-02-08T10:36:35.319Z,30.80
2018-02-08T10:39:03.317Z,33.30
2018-02-08T10:41:31.279Z,29.08
2018-02-08T10:43:59.258Z,29.15
2018-02-08T10:46:27.224Z,32.08
2018-02-08T10:48:55.199Z,29.25
2018-02-08T10:51:24.170Z,31.35
2018-02-08T10:53:52.131Z,32.00
2018-02-08T10:56:20.115Z,32.75
2018-02-08T10:58:48.075Z,30.67
2018-02-08T11:01:16.039Z,30.65
2018-02-08T11:03:45.125Z,31.45
2018-02-08T11:06:13.100Z,29.80
2018-02-08T11:08:41.120Z,30.73
2018-02-08T11:11:09.151Z,29.70
2018-02-08T11:13:37.146Z,30.12
2018-02-08T11:16:05.130Z,30.88
2018-02-08T11:18:33.083Z,31.25
2018-02-08T11:21:01.040Z,28.77
2018-02-08T11:23:29.050Z,29.30
2018-02-08T11:25:57.045Z,29.65
2018-02-08T11:28:24.995Z,31.48
2018-02-08T11:30:52.986Z,31.85
2018-02-08T11:33:20.966Z,34.13
2018-02-08T11:35:50.005Z,32.33
2018-02-08T11:38:17.943Z,30.00
2018-02-08T11:40:45.890Z,30.92
2018-02-08T11:43:13.859Z,32.58
2018-02-08T11:45:41.811Z,29.83
2018-02-08T11:48:09.766Z,32.88
2018-02-08T11:50:37.761Z,32.08
2018-02-08T11:53:05.726Z,29.67
2018-02-08T11:55:33.674Z,30.27
2018-02-08T11:58:01.611Z,31.08
2018-02-08T12:00:29.607Z,31.85
2018-02-08T12:02:57.572Z,31.48
2018-02-08T12:05:25.568Z,28.98
2018-02-08T12:07:53.532Z,30.58
2018-02-08T12:10:21.486Z,30.67
2018-02-08T12:12:49.473Z,31.62
2018-02-08T12:15:17.376Z,31.05
2018-02-08T12:17:45.323Z,30.48
2018-02-08T12:20:13.310Z,28.87
2018-02-08T12:22:41.279Z,31.80
2018-02-08T12:25:09.222Z,31.95
2018-02-08T12:27:37.186Z,30.73
2018-02-08T12:30:05.166Z,32.45
2018-02-08T12:32:33.161Z,30.73
2018-02-08T12:35:01.155Z,30.73
2018-02-08T12:37:29.158Z,30.00
2018-02-08T12:39:57.124Z,29.30
2018-02-08T12:42:25.063Z,29.73
2018-02-08T12:44:53.067Z,31.08
2018-02-08T12:47:21.019Z,30.83
2018-02-08T12:49:49.823Z,31.55
2018-02-08T12:52:17.824Z,31.87
2018-02-08T12:54:45.791Z,31.67
2018-02-08T12:57:13.828Z,30.37
2018-02-08T12:59:41.777Z,29.60
2018-02-08T13:02:09.759Z,31.58
2018-02-08T13:04:37.743Z,31.23
2018-02-08T13:07:05.719Z,30.25
2018-02-08T13:09:33.671Z,32.72
2018-02-08T13:12:01.671Z,30.33
2018-02-08T13:14:29.632Z,33.58
2018-02-08T13:16:57.595Z,31.37
2018-02-08T13:19:25.570Z,32.38
2018-02-08T13:21:53.519Z,30.33
2018-02-08T13:24:21.511Z,31.02
2018-02-08T13:26:49.434Z,30.95
2018-02-08T13:29:17.420Z,29.50
2018-02-08T13:31:45.375Z,30.75
2018-02-08T13:34:13.374Z,30.25
2018-02-08T13:36:42.410Z,31.23
2018-02-08T13:39:16.429Z,30.05
2018-02-08T13:41:44.422Z,31.00
2018-02-08T13:44:12.375Z,30.90
2018-02-08T13:46:40.383Z,30.95
2018-02-08T13:49:08.339Z,29.58
2018-02-08T13:51:39.267Z,30.05
2018-02-08T13:54:22.151Z,30.30
2018-02-08T13:56:56.210Z,30.58
2018-02-08T13:59:39.130Z,27.98
2018-02-08T14:02:07.939Z,29.37
2018-02-08T14:04:35.912Z,30.88
2018-02-08T14:07:03.891Z,33.35
2018-02-08T14:09:31.815Z,32.00
2018-02-08T14:11:59.779Z,30.10
2018-02-08T14:14:27.761Z,33.78
2018-02-08T14:16:55.747Z,29.87
2018-02-08T14:19:23.714Z,31.35
2018-02-08T14:21:51.671Z,30.08
2018-02-08T14:24:19.629Z,31.65
2018-02-08T14:26:47.639Z,31.10
2018-02-08T14:29:15.588Z,31.50
2018-02-08T14:31:43.583Z,31.95
2018-02-08T14:34:11.551Z,31.55
2018-02-08T14:36:39.539Z,31.75
2018-02-08T14:39:08.635Z,30.95
2018-02-08T14:41:36.590Z,30.40
2018-02-08T14:44:04.563Z,28.77
2018-02-08T14:46:32.552Z,30.45
2018-02-08T14:49:00.474Z,32.10
2018-02-08T14:51:28.447Z,30.67
2018-02-08T14:53:56.405Z,33.15
2018-02-08T14:56:24.347Z,32.72
2018-02-08T14:58:52.354Z,31.75
2018-02-08T15:01:20.343Z,31.80
2018-02-08T15:03:48.278Z,29.75
2018-02-08T15:06:16.222Z,30.05
2018-02-08T15:08:44.222Z,29.90
2018-02-08T15:11:12.190Z,30.25
2018-02-08T15:13:40.102Z,30.12
2018-02-08T15:16:08.102Z,29.12
2018-02-08T15:18:36.099Z,30.17
2018-02-08T15:21:04.091Z,30.98
2018-02-08T15:23:32.068Z,32.90
2018-02-08T15:26:00.047Z,32.58
2018-02-08T15:28:28.044Z,29.83
2018-02-08T15:30:56.010Z,32.08
2018-02-08T15:33:23.969Z,33.03
2018-02-08T15:35:51.951Z,33.20
2018-02-08T15:38:19.911Z,33.22
2018-02-08T15:40:47.842Z,31.10
2018-02-08T15:43:15.807Z,32.55
2018-02-08T15:45:43.771Z,32.42
2018-02-08T15:48:11.719Z,30.52
2018-02-08T15:50:39.686Z,30.90
2018-02-08T15:53:07.661Z,29.37
2018-02-08T15:55:35.570Z,32.40
2018-02-08T15:58:03.557Z,32.00
2018-02-08T16:00:31.518Z,31.95
2018-02-08T16:02:59.503Z,30.67
2018-02-08T16:05:27.524Z,32.22
2018-02-08T16:07:55.458Z,31.20
2018-02-08T16:10:23.439Z,29.63
2018-02-08T16:12:51.389Z,31.12
2018-02-08T16:15:19.364Z,30.60
2018-02-08T16:17:47.360Z,31.98
2018-02-08T16:20:15.340Z,31.30
2018-02-08T16:22:43.354Z,32.90
2018-02-08T16:25:11.309Z,33.90
2018-02-08T16:27:39.259Z,32.63
2018-02-08T16:30:07.284Z,30.12
2018-02-08T16:32:35.261Z,34.65
2018-02-08T16:35:03.246Z,30.42
2018-02-08T16:37:31.195Z,33.25
2018-02-08T16:40:00.059Z,28.38
2018-02-08T16:42:28.079Z,32.47
2018-02-08T16:44:56.058Z,33.22
2018-02-08T16:47:24.002Z,34.10
2018-02-08T16:49:51.964Z,30.45
2018-02-08T16:52:19.933Z,29.80
2018-02-08T16:54:47.842Z,39.55
2018-02-08T16:57:15.834Z,35.30
2018-02-08T16:59:43.754Z,32.45
2018-02-08T17:02:11.722Z,31.12
2018-02-08T17:04:39.739Z,31.62
2018-02-08T17:07:07.722Z,32.25
2018-02-08T17:09:35.685Z,30.35
2018-02-08T17:12:03.658Z,30.52
2018-02-08T17:14:31.643Z,32.05
2018-02-08T17:16:59.626Z,30.75
2018-02-08T17:19:27.578Z,31.60
2018-02-08T17:21:55.512Z,33.13
2018-02-08T17:24:23.507Z,31.35
2018-02-08T17:26:52.507Z,30.95
2018-02-08T17:29:20.631Z,34.30
2018-02-08T17:31:48.592Z,29.45
2018-02-08T17:34:16.586Z,33.03
2018-02-08T17:36:44.598Z,31.67
2018-02-08T17:39:12.523Z,28.83
2018-02-08T17:41:40.500Z,30.62
2018-02-08T17:44:08.479Z,29.77
2018-02-08T17:46:36.427Z,33.00
2018-02-08T17:49:05.447Z,33.15
2018-02-08T17:51:33.592Z,30.70
2018-02-08T17:54:01.563Z,29.70
2018-02-08T17:56:29.511Z,31.08
2018-02-08T17:58:57.534Z,31.52
2018-02-08T18:01:25.523Z,32.75
2018-02-08T18:03:53.510Z,32.50
2018-02-08T18:06:21.493Z,33.03
2018-02-08T18:08:49.487Z,32.78
2018-02-08T18:11:17.479Z,29.60
2018-02-08T18:13:45.463Z,29.37
2018-02-08T18:16:13.419Z,30.75
2018-02-08T18:18:41.577Z,32.00
2018-02-08T18:21:09.621Z,27.95
2018-02-08T18:23:37.598Z,30.35
2018-02-08T18:26:05.584Z,32.58
2018-02-08T18:28:33.554Z,31.70
2018-02-08T18:31:01.549Z,30.10
2018-02-08T18:33:29.527Z,33.85
2018-02-08T18:35:57.499Z,32.67
2018-02-08T18:38:25.438Z,32.72
2018-02-08T18:40:53.422Z,29.30
2018-02-08T18:43:21.419Z,31.85
2018-02-08T18:45:49.463Z,31.67
2018-02-08T18:48:17.403Z,31.12
2018-02-08T18:50:45.639Z,31.10
2018-02-08T18:53:13.775Z,33.38
2018-02-08T18:55:41.879Z,32.08
2018-02-08T18:58:09.871Z,30.42
2018-02-08T19:00:39.226Z,29.00
2018-02-08T19:03:07.311Z,29.58
2018-02-08T19:05:35.294Z,31.87
2018-02-08T19:08:03.303Z,30.48
2018-02-08T19:10:32.248Z,32.72
2018-02-08T19:13:00.245Z,32.58
2018-02-08T19:15:28.838Z,28.33
2018-02-08T19:17:57.286Z,31.33
2018-02-08T19:20:25.824Z,29.83
2018-02-08T19:22:53.995Z,30.52
2018-02-08T19:25:22.041Z,32.35
2018-02-08T19:27:49.982Z,33.30
2018-02-08T19:30:17.954Z,28.67
2018-02-08T19:32:45.936Z,28.90
2018-02-08T19:35:13.923Z,33.42
2018-02-08T19:37:42.982Z,29.65
2018-02-08T19:40:11.263Z,30.37
2018-02-08T19:42:39.322Z,29.23
2018-02-08T19:45:07.309Z,31.65
2018-02-08T19:47:35.283Z,30.52
2018-02-08T19:50:03.223Z,28.58
2018-02-08T19:52:31.171Z,33.80
2018-02-08T19:54:59.155Z,30.23
2018-02-08T19:57:27.118Z,28.77
2018-02-08T19:59:55.127Z,30.25
2018-02-08T20:02:23.090Z,30.80
2018-02-08T20:04:51.087Z,32.22
2018-02-08T20:07:19.032Z,29.00
2018-02-08T20:09:47.194Z,30.00
2018-02-08T20:12:15.186Z,29.27
2018-02-08T20:14:51.492Z,30.50
2018-02-08T20:17:19.473Z,30.65
2018-02-08T20:19:47.455Z,30.15
2018-02-08T20:22:15.466Z,30.08
2018-02-08T20:24:43.431Z,26.67
2018-02-08T20:27:11.399Z,29.75
2018-02-08T20:29:39.364Z,30.50
2018-02-08T20:32:07.368Z,30.52
2018-02-08T20:34:35.364Z,30.42
2018-02-08T20:37:03.359Z,29.35
2018-02-08T20:39:31.325Z,31.55
2018-02-08T20:41:59.269Z,29.92
2018-02-08T20:44:27.301Z,29.10
2018-02-08T20:46:55.395Z,28.30
2018-02-08T20:49:23.367Z,31.80
2018-02-08T20:51:51.338Z,28.75
2018-02-08T20:54:19.323Z,29.05
2018-02-08T20:56:47.306Z,30.90
2018-02-08T20:59:15.279Z,29.35
2018-02-08T21:01:43.316Z,33.78
2018-02-08T21:04:11.306Z,30.70
2018-02-08T21:06:39.301Z,31.35
2018-02-08T21:09:07.290Z,28.85
2018-02-08T21:11:35.330Z,31.10
2018-02-08T21:14:04.369Z,32.08
2018-02-08T21:16:32.363Z,32.85
2018-02-08T21:19:00.367Z,34.00
2018-02-08T21:21:28.368Z,33.78
2018-02-08T21:23:56.340Z,31.87
2018-02-08T21:26:24.341Z,29.15
2018-02-08T21:28:52.322Z,30.33
2018-02-08T21:31:20.286Z,27.60
2018-02-08T21:33:48.294Z,31.55
2018-02-08T21:36:16.269Z,29.35
2018-02-08T21:38:44.270Z,30.23
2018-02-08T21:41:12.234Z,30.37
2018-02-08T21:43:40.272Z,28.92
2018-02-08T21:46:08.232Z,28.52
2018-02-08T21:48:36.216Z,29.58
2018-02-08T21:51:04.203Z,31.30
2018-02-08T21:53:32.184Z,30.70
2018-02-08T21:56:00.126Z,29.87
2018-02-08T21:58:28.105Z,33.92
2018-02-08T22:00:56.158Z,29.05
2018-02-08T22:03:24.190Z,27.83
2018-02-08T22:05:52.166Z,30.80
2018-02-08T22:08:20.199Z,29.95
2018-02-08T22:10:48.198Z,29.08
2018-02-08T22:13:16.158Z,27.30
2018-02-08T22:15:44.140Z,29.80
2018-02-08T22:18:13.224Z,31.55
2018-02-08T22:20:41.213Z,29.63
2018-02-08T22:23:09.222Z,33.45
2018-02-08T22:25:37.212Z,31.90
2018-02-08T22:28:05.209Z,34.13
2018-02-08T22:30:33.176Z,28.25
2018-02-08T22:33:01.132Z,27.55
2018-02-08T22:35:29.153Z,30.17
2018-02-08T22:37:57.179Z,29.60
2018-02-08T22:40:25.149Z,28.48
2018-02-08T22:42:53.214Z,28.92
2018-02-08T22:45:21.290Z,30.62
2018-02-08T22:47:49.224Z,28.87
2018-02-08T22:50:17.218Z,31.20
2018-02-08T22:52:45.193Z,30.37
2018-02-08T22:55:13.126Z,28.70
2018-02-08T22:57:41.067Z,29.33
2018-02-08T23:00:09.052Z,29.65
2018-02-08T23:02:37.006Z,30.85
2018-02-08T23:05:04.958Z,30.83
2018-02-08T23:07:32.916Z,31.27
2018-02-08T23:10:00.886Z,31.62
2018-02-08T23:12:29.891Z,29.30
2018-02-08T23:14:57.892Z,31.73
2018-02-08T23:17:25.946Z,29.33
2018-02-08T23:19:53.895Z,28.95
2018-02-08T23:22:21.831Z,34.28
2018-02-08T23:24:49.774Z,26.45
2018-02-08T23:27:19.659Z,31.60
2018-02-08T23:29:47.627Z,30.90
2018-02-08T23:32:15.619Z,29.12
2018-02-08T23:34:43.879Z,30.02
2018-02-08T23:37:11.967Z,26.90
2018-02-08T23:39:39.972Z,34.38
2018-02-08T23:42:07.960Z,31.65
2018-02-08T23:44:35.902Z,28.25
2018-02-08T23:47:04.185Z,30.37
2018-02-08T23:49:32.208Z,30.70
2018-02-08T23:52:00.160Z,31.08
2018-02-08T23:54:28.175Z,34.28
2018-02-08T23:56:56.138Z,29.42
2018-02-08T23:59:25.134Z,30.35
